sensor_id;sensor_type;location;lat;lon;timestamp;P1;durP1;ratioP1;P2;durP2;ratioP2
11655;SDS011;5884;43.618;1.438;2022-07-29T04:47:53;6.77;;;1.87;;
11655;SDS011;5884;43.618;1.438;2022-07-29T04:50:20;5.60;;;2.17;;
11655;SDS011;5884;43.618;1.438;2022-07-29T04:52:48;4.97;;;1.70;;
11655;SDS011;5884;43.618;1.438;2022-07-29T04:55:15;5.83;;;2.10;;
11655;SDS011;5884;43.618;1.438;2022-07-29T04:57:43;7.53;;;2.47;;
11655;SDS011;5884;43.618;1.438;2022-07-29T05:00:10;5.87;;;2.37;;
11655;SDS011;5884;43.618;1.438;2022-07-29T05:02:40;6.73;;;2.17;;
11655;SDS011;5884;43.618;1.438;2022-07-29T05:05:07;8.93;;;2.50;;
11655;SDS011;5884;43.618;1.438;2022-07-29T05:07:34;7.23;;;2.37;;
11655;SDS011;5884;43.618;1.438;2022-07-29T05:10:02;5.80;;;2.10;;
11655;SDS011;5884;43.618;1.438;2022-07-29T05:12:30;11.70;;;2.40;;
11655;SDS011;5884;43.618;1.438;2022-07-29T05:14:57;5.57;;;2.00;;
11655;SDS011;5884;43.618;1.438;2022-07-29T05:17:24;6.57;;;2.30;;
11655;SDS011;5884;43.618;1.438;2022-07-29T05:19:53;4.47;;;2.50;;
11655;SDS011;5884;43.618;1.438;2022-07-29T05:22:20;9.17;;;3.30;;
11655;SDS011;5884;43.618;1.438;2022-07-29T05:24:48;6.40;;;2.87;;
11655;SDS011;5884;43.618;1.438;2022-07-29T05:27:15;7.67;;;3.00;;
11655;SDS011;5884;43.618;1.438;2022-07-29T05:29:42;6.37;;;2.83;;
11655;SDS011;5884;43.618;1.438;2022-07-29T05:32:09;6.47;;;2.87;;
11655;SDS011;5884;43.618;1.438;2022-07-29T05:34:37;7.80;;;3.07;;
11655;SDS011;5884;43.618;1.438;2022-07-29T05:37:05;12.27;;;4.13;;
11655;SDS011;5884;43.618;1.438;2022-07-29T05:39:32;9.00;;;3.20;;
11655;SDS011;5884;43.618;1.438;2022-07-29T05:42:00;5.87;;;2.87;;
11655;SDS011;5884;43.618;1.438;2022-07-29T05:44:27;6.53;;;3.00;;
11655;SDS011;5884;43.618;1.438;2022-07-29T05:46:54;6.73;;;2.80;;
11655;SDS011;5884;43.618;1.438;2022-07-29T05:49:21;5.90;;;2.93;;
11655;SDS011;5884;43.618;1.438;2022-07-29T05:51:48;7.10;;;3.07;;
11655;SDS011;5884;43.618;1.438;2022-07-29T05:54:17;7.20;;;3.20;;
11655;SDS011;5884;43.618;1.438;2022-07-29T05:56:44;6.83;;;2.90;;
11655;SDS011;5884;43.618;1.438;2022-07-29T05:59:12;4.43;;;2.93;;
11655;SDS011;5884;43.618;1.438;2022-07-29T06:01:39;7.80;;;3.63;;
11655;SDS011;5884;43.618;1.438;2022-07-29T06:04:06;6.47;;;2.80;;
11655;SDS011;5884;43.618;1.438;2022-07-29T06:06:33;8.07;;;2.97;;
11655;SDS011;5884;43.618;1.438;2022-07-29T06:09:02;10.20;;;3.07;;
11655;SDS011;5884;43.618;1.438;2022-07-29T06:11:30;5.33;;;2.97;;
11655;SDS011;5884;43.618;1.438;2022-07-29T06:13:57;5.97;;;2.80;;
11655;SDS011;5884;43.618;1.438;2022-07-29T06:16:25;6.27;;;3.23;;
11655;SDS011;5884;43.618;1.438;2022-07-29T06:18:52;7.10;;;3.50;;
11655;SDS011;5884;43.618;1.438;2022-07-29T06:21:19;7.50;;;3.37;;
11655;SDS011;5884;43.618;1.438;2022-07-29T06:23:46;6.70;;;3.40;;
11655;SDS011;5884;43.618;1.438;2022-07-29T06:26:13;7.03;;;3.70;;
11655;SDS011;5884;43.618;1.438;2022-07-29T06:28:42;9.00;;;4.00;;
11655;SDS011;5884;43.618;1.438;2022-07-29T06:31:09;7.27;;;4.10;;
11655;SDS011;5884;43.618;1.438;2022-07-29T06:33:36;8.33;;;3.83;;
11655;SDS011;5884;43.618;1.438;2022-07-29T06:36:04;8.70;;;3.77;;
11655;SDS011;5884;43.618;1.438;2022-07-29T06:38:32;9.77;;;3.50;;
11655;SDS011;5884;43.618;1.438;2022-07-29T06:41:00;7.23;;;3.50;;
11655;SDS011;5884;43.618;1.438;2022-07-29T06:43:29;6.23;;;3.97;;
11655;SDS011;5884;43.618;1.438;2022-07-29T06:46:03;7.70;;;4.10;;
11655;SDS011;5884;43.618;1.438;2022-07-29T06:48:33;8.23;;;3.67;;
11655;SDS011;5884;43.618;1.438;2022-07-29T06:51:01;7.93;;;3.40;;
11655;SDS011;5884;43.618;1.438;2022-07-29T06:53:29;7.03;;;3.70;;
11655;SDS011;5884;43.618;1.438;2022-07-29T06:55:57;8.07;;;3.70;;
11655;SDS011;5884;43.618;1.438;2022-07-29T06:58:25;11.47;;;4.20;;
11655;SDS011;5884;43.618;1.438;2022-07-29T07:00:52;14.13;;;4.17;;
11655;SDS011;5884;43.618;1.438;2022-07-29T07:03:22;6.70;;;3.73;;
11655;SDS011;5884;43.618;1.438;2022-07-29T07:05:49;6.97;;;3.97;;
11655;SDS011;5884;43.618;1.438;2022-07-29T07:08:18;7.27;;;3.53;;
11655;SDS011;5884;43.618;1.438;2022-07-29T07:10:46;7.57;;;3.80;;
11655;SDS011;5884;43.618;1.438;2022-07-29T07:13:13;12.30;;;3.90;;
11655;SDS011;5884;43.618;1.438;2022-07-29T07:15:42;6.10;;;3.67;;
11655;SDS011;5884;43.618;1.438;2022-07-29T07:18:10;5.93;;;3.43;;
11655;SDS011;5884;43.618;1.438;2022-07-29T07:20:39;6.33;;;3.57;;
11655;SDS011;5884;43.618;1.438;2022-07-29T07:23:06;8.87;;;4.10;;
11655;SDS011;5884;43.618;1.438;2022-07-29T07:25:34;8.47;;;3.70;;
11655;SDS011;5884;43.618;1.438;2022-07-29T07:28:01;10.40;;;3.90;;
11655;SDS011;5884;43.618;1.438;2022-07-29T07:30:29;6.07;;;3.57;;
11655;SDS011;5884;43.618;1.438;2022-07-29T07:32:56;7.87;;;3.60;;
11655;SDS011;5884;43.618;1.438;2022-07-29T07:35:23;6.53;;;3.60;;
11655;SDS011;5884;43.618;1.438;2022-07-29T07:37:55;4.17;;;3.33;;
11655;SDS011;5884;43.618;1.438;2022-07-29T07:40:23;5.03;;;3.37;;
11655;SDS011;5884;43.618;1.438;2022-07-29T07:42:51;5.33;;;3.30;;
11655;SDS011;5884;43.618;1.438;2022-07-29T07:45:18;5.73;;;3.27;;
11655;SDS011;5884;43.618;1.438;2022-07-29T07:47:45;7.10;;;3.37;;
11655;SDS011;5884;43.618;1.438;2022-07-29T07:50:12;4.27;;;3.57;;
11655;SDS011;5884;43.618;1.438;2022-07-29T07:52:47;6.67;;;3.50;;
11655;SDS011;5884;43.618;1.438;2022-07-29T07:55:17;9.70;;;4.17;;
11655;SDS011;5884;43.618;1.438;2022-07-29T07:57:44;9.60;;;4.27;;
11655;SDS011;5884;43.618;1.438;2022-07-29T08:00:13;7.80;;;3.67;;
11655;SDS011;5884;43.618;1.438;2022-07-29T08:02:41;6.87;;;3.70;;
11655;SDS011;5884;43.618;1.438;2022-07-29T08:05:10;4.83;;;3.40;;
11655;SDS011;5884;43.618;1.438;2022-07-29T08:07:42;6.53;;;3.20;;
11655;SDS011;5884;43.618;1.438;2022-07-29T08:10:10;4.93;;;3.73;;
11655;SDS011;5884;43.618;1.438;2022-07-29T08:12:39;5.37;;;3.57;;
11655;SDS011;5884;43.618;1.438;2022-07-29T08:15:06;7.50;;;4.07;;
11655;SDS011;5884;43.618;1.438;2022-07-29T08:17:35;6.77;;;4.10;;
11655;SDS011;5884;43.618;1.438;2022-07-29T08:20:02;10.13;;;3.93;;
11655;SDS011;5884;43.618;1.438;2022-07-29T08:22:31;14.90;;;4.40;;
11655;SDS011;5884;43.618;1.438;2022-07-29T08:24:58;11.53;;;4.10;;
11655;SDS011;5884;43.618;1.438;2022-07-29T08:27:25;11.23;;;3.67;;
11655;SDS011;5884;43.618;1.438;2022-07-29T08:29:57;8.27;;;3.40;;
11655;SDS011;5884;43.618;1.438;2022-07-29T08:32:24;9.73;;;3.80;;
11655;SDS011;5884;43.618;1.438;2022-07-29T08:34:53;6.53;;;3.30;;
11655;SDS011;5884;43.618;1.438;2022-07-29T08:37:20;6.43;;;2.80;;
11655;SDS011;5884;43.618;1.438;2022-07-29T08:39:47;5.70;;;3.43;;
11655;SDS011;5884;43.618;1.438;2022-07-29T08:42:14;5.83;;;3.50;;
11655;SDS011;5884;43.618;1.438;2022-07-29T08:44:42;5.07;;;3.20;;
11655;SDS011;5884;43.618;1.438;2022-07-29T08:47:11;7.70;;;3.60;;
11655;SDS011;5884;43.618;1.438;2022-07-29T08:49:41;5.87;;;3.30;;
11655;SDS011;5884;43.618;1.438;2022-07-29T08:52:10;7.47;;;3.37;;
11655;SDS011;5884;43.618;1.438;2022-07-29T08:54:38;6.70;;;3.20;;
11655;SDS011;5884;43.618;1.438;2022-07-29T08:57:05;4.87;;;3.57;;
11655;SDS011;5884;43.618;1.438;2022-07-29T08:59:33;10.03;;;3.40;;
11655;SDS011;5884;43.618;1.438;2022-07-29T09:02:01;5.70;;;2.97;;
11655;SDS011;5884;43.618;1.438;2022-07-29T09:04:33;6.87;;;3.17;;
11655;SDS011;5884;43.618;1.438;2022-07-29T09:07:03;7.40;;;3.67;;
11655;SDS011;5884;43.618;1.438;2022-07-29T09:09:31;8.30;;;3.50;;
11655;SDS011;5884;43.618;1.438;2022-07-29T09:12:00;5.10;;;3.07;;
11655;SDS011;5884;43.618;1.438;2022-07-29T09:14:29;6.37;;;3.30;;
11655;SDS011;5884;43.618;1.438;2022-07-29T09:16:56;6.70;;;3.07;;
11655;SDS011;5884;43.618;1.438;2022-07-29T09:19:24;8.60;;;3.90;;
11655;SDS011;5884;43.618;1.438;2022-07-29T09:21:56;6.67;;;3.30;;
11655;SDS011;5884;43.618;1.438;2022-07-29T09:24:24;8.13;;;3.30;;
11655;SDS011;5884;43.618;1.438;2022-07-29T09:26:54;6.47;;;3.30;;
11655;SDS011;5884;43.618;1.438;2022-07-29T09:29:22;7.67;;;3.60;;
11655;SDS011;5884;43.618;1.438;2022-07-29T09:31:50;8.30;;;3.40;;
11655;SDS011;5884;43.618;1.438;2022-07-29T09:34:21;7.67;;;3.63;;
11655;SDS011;5884;43.618;1.438;2022-07-29T09:36:50;5.67;;;3.13;;
11655;SDS011;5884;43.618;1.438;2022-07-29T09:39:29;5.50;;;3.47;;
11655;SDS011;5884;43.618;1.438;2022-07-29T09:41:59;5.37;;;3.50;;
11655;SDS011;5884;43.618;1.438;2022-07-29T09:44:40;4.77;;;3.30;;
11655;SDS011;5884;43.618;1.438;2022-07-29T09:47:09;7.50;;;3.40;;
11655;SDS011;5884;43.618;1.438;2022-07-29T09:49:50;5.40;;;3.07;;
11655;SDS011;5884;43.618;1.438;2022-07-29T09:52:19;5.03;;;2.90;;
11655;SDS011;5884;43.618;1.438;2022-07-29T09:54:48;6.83;;;2.87;;
11655;SDS011;5884;43.618;1.438;2022-07-29T09:57:22;6.20;;;3.33;;
11655;SDS011;5884;43.618;1.438;2022-07-29T09:59:55;8.10;;;2.90;;
11655;SDS011;5884;43.618;1.438;2022-07-29T10:02:28;5.13;;;2.60;;
11655;SDS011;5884;43.618;1.438;2022-07-29T10:04:58;10.83;;;2.83;;
11655;SDS011;5884;43.618;1.438;2022-07-29T10:07:26;6.07;;;2.40;;
11655;SDS011;5884;43.618;1.438;2022-07-29T10:10:17;5.17;;;2.30;;
11655;SDS011;5884;43.618;1.438;2022-07-29T10:12:50;4.03;;;2.30;;
11655;SDS011;5884;43.618;1.438;2022-07-29T10:15:21;5.77;;;2.83;;
11655;SDS011;5884;43.618;1.438;2022-07-29T10:17:50;8.90;;;2.33;;
11655;SDS011;5884;43.618;1.438;2022-07-29T10:20:19;5.37;;;2.27;;
11655;SDS011;5884;43.618;1.438;2022-07-29T10:22:47;5.30;;;2.30;;
11655;SDS011;5884;43.618;1.438;2022-07-29T10:25:17;8.30;;;2.60;;
11655;SDS011;5884;43.618;1.438;2022-07-29T10:27:46;7.33;;;2.10;;
11655;SDS011;5884;43.618;1.438;2022-07-29T10:30:16;3.77;;;2.00;;
11655;SDS011;5884;43.618;1.438;2022-07-29T10:32:56;9.80;;;2.50;;
11655;SDS011;5884;43.618;1.438;2022-07-29T10:35:54;5.97;;;2.60;;
11655;SDS011;5884;43.618;1.438;2022-07-29T10:38:41;6.07;;;2.70;;
11655;SDS011;5884;43.618;1.438;2022-07-29T10:41:19;4.63;;;2.50;;
11655;SDS011;5884;43.618;1.438;2022-07-29T10:44:04;4.93;;;2.50;;
11655;SDS011;5884;43.618;1.438;2022-07-29T10:46:35;4.60;;;2.37;;
11655;SDS011;5884;43.618;1.438;2022-07-29T10:49:05;6.50;;;2.60;;
11655;SDS011;5884;43.618;1.438;2022-07-29T10:54:38;5.37;;;2.60;;
11655;SDS011;5884;43.618;1.438;2022-07-29T10:57:20;5.23;;;2.40;;
11655;SDS011;5884;43.618;1.438;2022-07-29T11:02:56;4.53;;;2.10;;
11655;SDS011;5884;43.618;1.438;2022-07-29T11:05:25;5.73;;;2.50;;
11655;SDS011;5884;43.618;1.438;2022-07-29T11:10:52;3.53;;;2.50;;
11655;SDS011;5884;43.618;1.438;2022-07-29T11:14:04;7.03;;;3.00;;
11655;SDS011;5884;43.618;1.438;2022-07-29T11:19:31;10.30;;;2.63;;
11655;SDS011;5884;43.618;1.438;2022-07-29T11:21:59;4.90;;;2.50;;
11655;SDS011;5884;43.618;1.438;2022-07-29T11:24:27;9.43;;;3.30;;
11655;SDS011;5884;43.618;1.438;2022-07-29T11:27:12;7.33;;;2.80;;
11655;SDS011;5884;43.618;1.438;2022-07-29T11:29:49;3.63;;;2.40;;
11655;SDS011;5884;43.618;1.438;2022-07-29T11:32:19;7.57;;;2.53;;
11655;SDS011;5884;43.618;1.438;2022-07-29T11:34:47;5.23;;;2.40;;
11655;SDS011;5884;43.618;1.438;2022-07-29T11:37:19;5.70;;;2.40;;
11655;SDS011;5884;43.618;1.438;2022-07-29T11:42:48;3.40;;;2.03;;
11655;SDS011;5884;43.618;1.438;2022-07-29T11:45:19;4.50;;;2.00;;
11655;SDS011;5884;43.618;1.438;2022-07-29T11:47:54;5.10;;;2.00;;
11655;SDS011;5884;43.618;1.438;2022-07-29T11:50:31;4.40;;;2.13;;
11655;SDS011;5884;43.618;1.438;2022-07-29T11:53:01;5.53;;;2.43;;
11655;SDS011;5884;43.618;1.438;2022-07-29T11:55:37;8.20;;;2.30;;
11655;SDS011;5884;43.618;1.438;2022-07-29T11:58:06;5.10;;;2.10;;
11655;SDS011;5884;43.618;1.438;2022-07-29T12:00:35;5.93;;;2.10;;
11655;SDS011;5884;43.618;1.438;2022-07-29T12:03:05;5.93;;;2.43;;
11655;SDS011;5884;43.618;1.438;2022-07-29T12:05:35;5.37;;;2.13;;
11655;SDS011;5884;43.618;1.438;2022-07-29T12:08:06;5.20;;;2.50;;
11655;SDS011;5884;43.618;1.438;2022-07-29T12:10:38;4.47;;;2.00;;
11655;SDS011;5884;43.618;1.438;2022-07-29T12:13:07;3.53;;;2.30;;
11655;SDS011;5884;43.618;1.438;2022-07-29T12:15:36;5.07;;;2.20;;
11655;SDS011;5884;43.618;1.438;2022-07-29T12:18:13;3.07;;;2.33;;
11655;SDS011;5884;43.618;1.438;2022-07-29T12:20:43;5.20;;;2.40;;
11655;SDS011;5884;43.618;1.438;2022-07-29T12:23:12;5.77;;;2.20;;
11655;SDS011;5884;43.618;1.438;2022-07-29T12:25:42;6.80;;;1.97;;
11655;SDS011;5884;43.618;1.438;2022-07-29T12:28:11;4.17;;;2.00;;
11655;SDS011;5884;43.618;1.438;2022-07-29T12:30:43;6.60;;;2.43;;
11655;SDS011;5884;43.618;1.438;2022-07-29T12:33:17;6.50;;;2.40;;
11655;SDS011;5884;43.618;1.438;2022-07-29T12:35:48;3.27;;;1.90;;
11655;SDS011;5884;43.618;1.438;2022-07-29T12:38:17;6.20;;;2.07;;
11655;SDS011;5884;43.618;1.438;2022-07-29T12:40:45;4.60;;;2.60;;
11655;SDS011;5884;43.618;1.438;2022-07-29T12:43:14;4.83;;;2.50;;
11655;SDS011;5884;43.618;1.438;2022-07-29T12:45:45;8.53;;;2.33;;
11655;SDS011;5884;43.618;1.438;2022-07-29T12:48:15;3.80;;;2.13;;
11655;SDS011;5884;43.618;1.438;2022-07-29T12:50:53;6.10;;;2.40;;
11655;SDS011;5884;43.618;1.438;2022-07-29T12:53:23;6.87;;;2.23;;
11655;SDS011;5884;43.618;1.438;2022-07-29T12:55:51;8.17;;;2.40;;
11655;SDS011;5884;43.618;1.438;2022-07-29T12:58:27;5.20;;;2.20;;
11655;SDS011;5884;43.618;1.438;2022-07-29T13:01:06;2.97;;;2.07;;
11655;SDS011;5884;43.618;1.438;2022-07-29T13:03:43;6.47;;;2.50;;
11655;SDS011;5884;43.618;1.438;2022-07-29T13:09:14;4.13;;;2.27;;
11655;SDS011;5884;43.618;1.438;2022-07-29T13:11:44;6.17;;;2.50;;
11655;SDS011;5884;43.618;1.438;2022-07-29T13:14:13;5.73;;;2.37;;
11655;SDS011;5884;43.618;1.438;2022-07-29T13:17:01;5.53;;;2.57;;
11655;SDS011;5884;43.618;1.438;2022-07-29T13:19:34;7.93;;;2.53;;
11655;SDS011;5884;43.618;1.438;2022-07-29T13:22:05;6.53;;;2.37;;
11655;SDS011;5884;43.618;1.438;2022-07-29T13:24:33;2.93;;;2.10;;
11655;SDS011;5884;43.618;1.438;2022-07-29T13:27:11;2.70;;;1.80;;
11655;SDS011;5884;43.618;1.438;2022-07-29T13:29:40;3.83;;;2.20;;
11655;SDS011;5884;43.618;1.438;2022-07-29T13:32:09;6.03;;;2.33;;
11655;SDS011;5884;43.618;1.438;2022-07-29T13:34:37;4.17;;;2.10;;
11655;SDS011;5884;43.618;1.438;2022-07-29T13:37:04;5.40;;;2.20;;
11655;SDS011;5884;43.618;1.438;2022-07-29T13:39:32;4.90;;;2.27;;
11655;SDS011;5884;43.618;1.438;2022-07-29T13:41:59;3.03;;;1.93;;
11655;SDS011;5884;43.618;1.438;2022-07-29T13:44:26;6.53;;;2.47;;
11655;SDS011;5884;43.618;1.438;2022-07-29T13:46:53;6.53;;;2.10;;
11655;SDS011;5884;43.618;1.438;2022-07-29T13:49:22;3.10;;;2.27;;
11655;SDS011;5884;43.618;1.438;2022-07-29T13:51:49;5.33;;;2.13;;
11655;SDS011;5884;43.618;1.438;2022-07-29T13:54:16;3.67;;;2.10;;
11655;SDS011;5884;43.618;1.438;2022-07-29T13:56:44;4.90;;;2.33;;
11655;SDS011;5884;43.618;1.438;2022-07-29T13:59:11;4.50;;;2.10;;
11655;SDS011;5884;43.618;1.438;2022-07-29T14:01:39;4.60;;;2.00;;
11655;SDS011;5884;43.618;1.438;2022-07-29T14:04:07;3.57;;;1.90;;
11655;SDS011;5884;43.618;1.438;2022-07-29T14:06:36;3.80;;;1.80;;
11655;SDS011;5884;43.618;1.438;2022-07-29T14:09:03;4.20;;;2.20;;
11655;SDS011;5884;43.618;1.438;2022-07-29T14:11:33;5.00;;;2.57;;
11655;SDS011;5884;43.618;1.438;2022-07-29T14:14:00;4.70;;;2.27;;
11655;SDS011;5884;43.618;1.438;2022-07-29T14:16:27;2.97;;;1.97;;
11655;SDS011;5884;43.618;1.438;2022-07-29T14:18:55;2.93;;;2.10;;
11655;SDS011;5884;43.618;1.438;2022-07-29T14:21:22;4.27;;;2.00;;
11655;SDS011;5884;43.618;1.438;2022-07-29T14:23:51;4.57;;;2.03;;
11655;SDS011;5884;43.618;1.438;2022-07-29T14:26:19;5.63;;;2.50;;
11655;SDS011;5884;43.618;1.438;2022-07-29T14:28:47;2.97;;;2.00;;
11655;SDS011;5884;43.618;1.438;2022-07-29T14:31:15;3.33;;;1.93;;
11655;SDS011;5884;43.618;1.438;2022-07-29T14:33:42;5.33;;;2.20;;
11655;SDS011;5884;43.618;1.438;2022-07-29T14:36:09;4.07;;;2.20;;
11655;SDS011;5884;43.618;1.438;2022-07-29T14:38:36;6.30;;;2.50;;
11655;SDS011;5884;43.618;1.438;2022-07-29T14:41:06;3.53;;;2.17;;
11655;SDS011;5884;43.618;1.438;2022-07-29T14:43:34;4.83;;;2.10;;
11655;SDS011;5884;43.618;1.438;2022-07-29T14:46:01;5.50;;;2.30;;
11655;SDS011;5884;43.618;1.438;2022-07-29T14:48:28;3.57;;;2.30;;
11655;SDS011;5884;43.618;1.438;2022-07-29T14:50:56;2.70;;;2.00;;
11655;SDS011;5884;43.618;1.438;2022-07-29T14:53:24;3.53;;;2.03;;
11655;SDS011;5884;43.618;1.438;2022-07-29T14:55:51;3.97;;;1.88;;
11655;SDS011;5884;43.618;1.438;2022-07-29T14:58:19;4.23;;;2.00;;
11655;SDS011;5884;43.618;1.438;2022-07-29T15:00:47;2.87;;;1.90;;
11655;SDS011;5884;43.618;1.438;2022-07-29T15:03:15;3.93;;;1.90;;
11655;SDS011;5884;43.618;1.438;2022-07-29T15:05:42;3.80;;;1.77;;
11655;SDS011;5884;43.618;1.438;2022-07-29T15:08:09;2.03;;;1.83;;
11655;SDS011;5884;43.618;1.438;2022-07-29T15:10:37;5.68;;;2.30;;
11655;SDS011;5884;43.618;1.438;2022-07-29T15:13:04;5.05;;;1.85;;
11655;SDS011;5884;43.618;1.438;2022-07-29T15:15:32;2.77;;;1.83;;
11655;SDS011;5884;43.618;1.438;2022-07-29T15:18:00;3.25;;;2.00;;
11655;SDS011;5884;43.618;1.438;2022-07-29T15:20:27;4.10;;;1.85;;
11655;SDS011;5884;43.618;1.438;2022-07-29T15:22:54;4.15;;;1.58;;
11655;SDS011;5884;43.618;1.438;2022-07-29T15:25:22;5.80;;;1.70;;
11655;SDS011;5884;43.618;1.438;2022-07-29T15:27:50;4.10;;;2.00;;
11655;SDS011;5884;43.618;1.438;2022-07-29T15:30:17;4.30;;;1.95;;
11655;SDS011;5884;43.618;1.438;2022-07-29T15:32:46;4.13;;;1.92;;
11655;SDS011;5884;43.618;1.438;2022-07-29T15:35:13;3.38;;;1.90;;
11655;SDS011;5884;43.618;1.438;2022-07-29T15:37:40;2.13;;;1.70;;
11655;SDS011;5884;43.618;1.438;2022-07-29T15:40:08;6.68;;;1.70;;
11655;SDS011;5884;43.618;1.438;2022-07-29T15:42:36;4.30;;;1.88;;
11655;SDS011;5884;43.618;1.438;2022-07-29T15:45:04;2.88;;;1.67;;
11655;SDS011;5884;43.618;1.438;2022-07-29T15:47:33;4.03;;;1.60;;
11655;SDS011;5884;43.618;1.438;2022-07-29T15:50:03;2.97;;;1.80;;
11655;SDS011;5884;43.618;1.438;2022-07-29T15:52:36;3.03;;;1.77;;
11655;SDS011;5884;43.618;1.438;2022-07-29T15:55:04;3.33;;;2.10;;
11655;SDS011;5884;43.618;1.438;2022-07-29T15:57:32;8.47;;;2.30;;
11655;SDS011;5884;43.618;1.438;2022-07-29T15:59:59;5.37;;;2.30;;
11655;SDS011;5884;43.618;1.438;2022-07-29T16:02:27;5.40;;;2.30;;
11655;SDS011;5884;43.618;1.438;2022-07-29T16:04:54;3.53;;;2.60;;
11655;SDS011;5884;43.618;1.438;2022-07-29T16:07:23;2.60;;;2.00;;
11655;SDS011;5884;43.618;1.438;2022-07-29T16:09:50;4.03;;;2.17;;
11655;SDS011;5884;43.618;1.438;2022-07-29T16:12:17;5.77;;;2.20;;
11655;SDS011;5884;43.618;1.438;2022-07-29T16:14:45;3.77;;;2.07;;
11655;SDS011;5884;43.618;1.438;2022-07-29T16:17:13;7.78;;;2.22;;
11655;SDS011;5884;43.618;1.438;2022-07-29T16:19:40;5.70;;;1.97;;
11655;SDS011;5884;43.618;1.438;2022-07-29T16:22:08;10.13;;;2.20;;
11655;SDS011;5884;43.618;1.438;2022-07-29T16:24:36;5.73;;;2.20;;
11655;SDS011;5884;43.618;1.438;2022-07-29T16:27:04;3.00;;;2.20;;
11655;SDS011;5884;43.618;1.438;2022-07-29T16:29:32;5.00;;;2.40;;
11655;SDS011;5884;43.618;1.438;2022-07-29T16:32:00;4.00;;;2.07;;
11655;SDS011;5884;43.618;1.438;2022-07-29T16:34:28;4.13;;;2.13;;
11655;SDS011;5884;43.618;1.438;2022-07-29T16:36:55;4.00;;;2.53;;
11655;SDS011;5884;43.618;1.438;2022-07-29T16:39:22;3.97;;;2.20;;
11655;SDS011;5884;43.618;1.438;2022-07-29T16:41:51;7.07;;;2.40;;
11655;SDS011;5884;43.618;1.438;2022-07-29T16:44:18;3.35;;;2.25;;
11655;SDS011;5884;43.618;1.438;2022-07-29T16:46:45;3.77;;;2.40;;
11655;SDS011;5884;43.618;1.438;2022-07-29T16:49:12;5.50;;;2.43;;
11655;SDS011;5884;43.618;1.438;2022-07-29T16:51:39;4.30;;;1.97;;
11655;SDS011;5884;43.618;1.438;2022-07-29T16:54:07;3.75;;;2.17;;
11655;SDS011;5884;43.618;1.438;2022-07-29T16:56:35;4.63;;;2.00;;
11655;SDS011;5884;43.618;1.438;2022-07-29T16:59:03;4.53;;;2.30;;
11655;SDS011;5884;43.618;1.438;2022-07-29T17:01:31;5.23;;;3.23;;
11655;SDS011;5884;43.618;1.438;2022-07-29T17:03:58;3.37;;;2.80;;
11655;SDS011;5884;43.618;1.438;2022-07-29T17:06:31;4.47;;;2.70;;
11655;SDS011;5884;43.618;1.438;2022-07-29T17:08:59;5.13;;;2.57;;
11655;SDS011;5884;43.618;1.438;2022-07-29T17:11:26;3.00;;;1.93;;
11655;SDS011;5884;43.618;1.438;2022-07-29T17:13:53;6.67;;;2.50;;
11655;SDS011;5884;43.618;1.438;2022-07-29T17:16:23;3.50;;;2.60;;
11655;SDS011;5884;43.618;1.438;2022-07-29T17:18:51;5.17;;;3.20;;
11655;SDS011;5884;43.618;1.438;2022-07-29T17:21:20;2.97;;;2.67;;
11655;SDS011;5884;43.618;1.438;2022-07-29T17:23:48;7.23;;;2.77;;
11655;SDS011;5884;43.618;1.438;2022-07-29T17:26:17;4.97;;;2.50;;
11655;SDS011;5884;43.618;1.438;2022-07-29T17:28:44;5.53;;;2.23;;
11655;SDS011;5884;43.618;1.438;2022-07-29T17:31:13;4.07;;;2.33;;
11655;SDS011;5884;43.618;1.438;2022-07-29T17:33:41;5.40;;;2.93;;
11655;SDS011;5884;43.618;1.438;2022-07-29T17:36:09;4.17;;;2.80;;
11655;SDS011;5884;43.618;1.438;2022-07-29T17:38:52;8.17;;;2.70;;
11655;SDS011;5884;43.618;1.438;2022-07-29T17:41:21;4.83;;;2.13;;
11655;SDS011;5884;43.618;1.438;2022-07-29T17:43:50;4.53;;;2.33;;
11655;SDS011;5884;43.618;1.438;2022-07-29T17:46:18;2.90;;;2.33;;
11655;SDS011;5884;43.618;1.438;2022-07-29T17:48:48;4.20;;;2.20;;
11655;SDS011;5884;43.618;1.438;2022-07-29T17:51:15;3.30;;;2.30;;
11655;SDS011;5884;43.618;1.438;2022-07-29T17:53:42;6.50;;;2.50;;
11655;SDS011;5884;43.618;1.438;2022-07-29T17:56:10;2.67;;;2.30;;
11655;SDS011;5884;43.618;1.438;2022-07-29T17:58:38;4.60;;;2.37;;
11655;SDS011;5884;43.618;1.438;2022-07-29T18:01:05;4.97;;;2.40;;
11655;SDS011;5884;43.618;1.438;2022-07-29T18:03:33;3.50;;;2.70;;
11655;SDS011;5884;43.618;1.438;2022-07-29T18:06:01;6.40;;;2.53;;
11655;SDS011;5884;43.618;1.438;2022-07-29T18:08:29;4.00;;;2.50;;
11655;SDS011;5884;43.618;1.438;2022-07-29T18:10:56;3.37;;;2.60;;
11655;SDS011;5884;43.618;1.438;2022-07-29T18:13:24;5.53;;;2.47;;
11655;SDS011;5884;43.618;1.438;2022-07-29T18:15:51;5.73;;;2.73;;
11655;SDS011;5884;43.618;1.438;2022-07-29T18:18:18;3.37;;;2.40;;
11655;SDS011;5884;43.618;1.438;2022-07-29T18:20:46;2.80;;;2.20;;
11655;SDS011;5884;43.618;1.438;2022-07-29T18:23:14;7.30;;;2.50;;
11655;SDS011;5884;43.618;1.438;2022-07-29T18:25:42;3.20;;;2.83;;
11655;SDS011;5884;43.618;1.438;2022-07-29T18:28:09;4.63;;;2.70;;
11655;SDS011;5884;43.618;1.438;2022-07-29T18:30:36;3.00;;;2.30;;
11655;SDS011;5884;43.618;1.438;2022-07-29T18:33:04;5.73;;;2.83;;
11655;SDS011;5884;43.618;1.438;2022-07-29T18:35:32;2.70;;;2.37;;
11655;SDS011;5884;43.618;1.438;2022-07-29T18:38:00;4.27;;;2.60;;
11655;SDS011;5884;43.618;1.438;2022-07-29T18:40:31;3.17;;;2.23;;
11655;SDS011;5884;43.618;1.438;2022-07-29T18:42:59;3.13;;;1.97;;
11655;SDS011;5884;43.618;1.438;2022-07-29T18:45:26;4.43;;;2.17;;
11655;SDS011;5884;43.618;1.438;2022-07-29T18:47:53;3.73;;;2.23;;
11655;SDS011;5884;43.618;1.438;2022-07-29T18:50:21;4.97;;;2.60;;
11655;SDS011;5884;43.618;1.438;2022-07-29T18:52:48;7.63;;;2.40;;
11655;SDS011;5884;43.618;1.438;2022-07-29T18:55:16;3.57;;;2.60;;
11655;SDS011;5884;43.618;1.438;2022-07-29T18:57:45;6.40;;;2.73;;
11655;SDS011;5884;43.618;1.438;2022-07-29T19:00:12;2.93;;;2.40;;
11655;SDS011;5884;43.618;1.438;2022-07-29T19:02:40;2.83;;;2.40;;
11655;SDS011;5884;43.618;1.438;2022-07-29T19:05:08;4.53;;;2.30;;
11655;SDS011;5884;43.618;1.438;2022-07-29T19:07:35;3.10;;;2.57;;
11655;SDS011;5884;43.618;1.438;2022-07-29T19:10:03;5.17;;;3.13;;
11655;SDS011;5884;43.618;1.438;2022-07-29T19:12:31;5.67;;;2.97;;
11655;SDS011;5884;43.618;1.438;2022-07-29T19:15:00;6.37;;;2.90;;
11655;SDS011;5884;43.618;1.438;2022-07-29T19:17:28;4.27;;;3.30;;
11655;SDS011;5884;43.618;1.438;2022-07-29T19:19:55;6.23;;;3.50;;
11655;SDS011;5884;43.618;1.438;2022-07-29T19:22:22;4.07;;;2.57;;
11655;SDS011;5884;43.618;1.438;2022-07-29T19:24:50;3.97;;;3.10;;
11655;SDS011;5884;43.618;1.438;2022-07-29T19:27:17;5.13;;;2.70;;
11655;SDS011;5884;43.618;1.438;2022-07-29T19:29:44;4.30;;;2.60;;
11655;SDS011;5884;43.618;1.438;2022-07-29T19:32:13;3.33;;;2.67;;
11655;SDS011;5884;43.618;1.438;2022-07-29T19:34:40;3.13;;;2.50;;
11655;SDS011;5884;43.618;1.438;2022-07-29T19:37:28;2.93;;;2.50;;
11655;SDS011;5884;43.618;1.438;2022-07-29T19:39:55;4.43;;;2.47;;
11655;SDS011;5884;43.618;1.438;2022-07-29T19:42:22;4.63;;;2.50;;
11655;SDS011;5884;43.618;1.438;2022-07-29T19:44:49;5.20;;;2.57;;
11655;SDS011;5884;43.618;1.438;2022-07-29T19:47:18;3.50;;;2.67;;
11655;SDS011;5884;43.618;1.438;2022-07-29T19:49:45;5.93;;;2.83;;
11655;SDS011;5884;43.618;1.438;2022-07-29T19:52:12;6.13;;;2.50;;
11655;SDS011;5884;43.618;1.438;2022-07-29T19:54:40;5.03;;;2.67;;
11655;SDS011;5884;43.618;1.438;2022-07-29T19:57:07;3.20;;;2.90;;
11655;SDS011;5884;43.618;1.438;2022-07-29T19:59:34;6.07;;;2.60;;
11655;SDS011;5884;43.618;1.438;2022-07-29T20:02:01;3.07;;;2.27;;
11655;SDS011;5884;43.618;1.438;2022-07-29T20:04:30;4.47;;;2.77;;
11655;SDS011;5884;43.618;1.438;2022-07-29T20:06:58;3.97;;;2.87;;
11655;SDS011;5884;43.618;1.438;2022-07-29T20:09:25;3.40;;;2.60;;
11655;SDS011;5884;43.618;1.438;2022-07-29T20:11:52;2.77;;;2.43;;
11655;SDS011;5884;43.618;1.438;2022-07-29T20:14:20;4.10;;;2.80;;
11655;SDS011;5884;43.618;1.438;2022-07-29T20:16:47;3.13;;;2.30;;